Time;durP1;ratioP1;P1;durP2;ratioP2;P2;SDS_P1;SDS_P2;PMS_P1;PMS_P2;Temp;Humidity;BMP_temperature;BMP_pressure;BME280_temperature;BME280_humidity;BME280_pressure;Samples;Min_cycle;Max_cycle;Signal;HPM_P1;HPM_P2
2022/04/21 00:01:36;;;;;;;0.10;0.10;;;8.70;99.90;12.80;88045.00;;;;5037491;28;20227;-72
2022/04/21 00:04:05;;;;;;;0.10;0.10;;;8.70;99.90;12.80;88045.00;;;;5041899;28;20571;-71
2022/04/21 00:06:33;;;;;;;0.10;0.10;;;8.70;99.90;12.80;88045.00;;;;5034909;28;20207;-73
2022/04/21 00:09:01;;;;;;;0.10;0.10;;;8.60;99.90;12.80;88045.00;;;;5034899;28;20241;-72
2022/04/21 00:11:30;;;;;;;0.10;0.10;;;8.50;99.90;12.80;88045.00;;;;5034511;28;20199;-71
2022/04/21 00:13:58;;;;;;;0.10;0.10;;;8.50;99.90;12.80;88045.00;;;;5034060;28;20226;-72
2022/04/21 00:16:26;;;;;;;0.10;0.10;;;8.40;99.90;12.80;88045.00;;;;5034053;28;20196;-72
2022/04/21 00:18:54;;;;;;;0.10;0.10;;;8.40;99.90;12.80;88045.00;;;;5034819;28;20618;-72
2022/04/21 00:23:25;;;;;;;0.10;0.10;;;8.50;99.90;12.80;88045.00;;;;5034769;28;20234;-71
2022/04/21 00:24:09;;;;;;;0.10;0.10;;;8.50;99.90;12.80;88045.00;;;;5034038;28;20631;-71
2022/04/21 00:26:38;;;;;;;0.10;0.10;;;8.40;99.90;12.80;88045.00;;;;5034330;28;20715;-71
2022/04/21 00:29:06;;;;;;;0.10;0.10;;;8.40;99.90;12.80;88045.00;;;;5032742;28;20672;-71
2022/04/21 00:31:34;;;;;;;0.10;0.10;;;8.40;99.90;12.80;88045.00;;;;5034411;28;20599;-71
2022/04/21 00:34:02;;;;;;;0.10;0.10;;;8.40;99.90;12.80;88045.00;;;;5034257;28;20230;-71
2022/04/21 00:36:30;;;;;;;0.10;0.10;;;8.40;99.90;12.80;88045.00;;;;5034296;28;20231;-70
2022/04/21 00:38:58;;;;;;;0.10;0.10;;;8.50;99.90;12.80;88045.00;;;;5034458;28;20229;-71
2022/04/21 00:41:26;;;;;;;0.10;0.10;;;8.50;99.90;12.80;88045.00;;;;5034164;28;20215;-71
2022/04/21 00:43:55;;;;;;;0.10;0.10;;;8.60;99.90;12.80;88045.00;;;;5033535;28;20221;-71
2022/04/21 00:46:23;;;;;;;0.10;0.10;;;8.60;99.90;12.80;88045.00;;;;5033954;28;20206;-70
2022/04/21 00:48:51;;;;;;;0.10;0.10;;;8.50;99.90;12.80;88045.00;;;;5034249;28;20684;-70
2022/04/21 00:51:19;;;;;;;0.10;0.10;;;8.50;99.90;12.80;88045.00;;;;5034167;28;20734;-70
2022/04/21 00:53:47;;;;;;;0.10;0.10;;;8.50;99.90;12.80;88045.00;;;;5034011;28;20260;-70
2022/04/21 00:56:16;;;;;;;0.10;0.10;;;8.40;99.90;12.80;88045.00;;;;5033719;28;20602;-70
2022/04/21 00:58:45;;;;;;;0.10;0.10;;;8.40;99.90;12.80;88045.00;;;;5033350;28;20716;-72
2022/04/21 01:03:58;;;;;;;0.10;0.10;;;8.60;99.90;12.80;88045.00;;;;5033389;28;20619;-70
2022/04/21 01:06:27;;;;;;;0.10;0.10;;;8.60;99.90;12.80;88045.00;;;;5015792;28;20258;-72
2022/04/21 01:08:54;;;;;;;0.10;0.10;;;8.50;99.90;12.80;88045.00;;;;5021400;28;20207;-70
2022/04/21 01:11:22;;;;;;;0.10;0.10;;;8.50;99.90;12.80;88045.00;;;;5033601;28;20557;-71
2022/04/21 01:13:51;;;;;;;0.10;0.10;;;8.50;99.90;12.80;88045.00;;;;5033063;28;20219;-71
2022/04/21 01:16:21;;;;;;;0.10;0.10;;;8.40;99.90;12.80;88045.00;;;;5033113;28;20195;-70
2022/04/21 01:18:50;;;;;;;0.10;0.10;;;8.30;99.90;12.80;88045.00;;;;5033847;28;20188;-71
2022/04/21 01:21:21;;;;;;;0.10;0.10;;;8.30;99.90;12.80;88045.00;;;;5033546;28;20287;-72
2022/04/21 01:23:49;;;;;;;0.10;0.10;;;8.40;99.90;12.80;88045.00;;;;5037208;28;20289;-71
2022/04/21 01:26:18;;;;;;;0.10;0.10;;;8.30;99.90;12.80;88045.00;;;;5035302;28;20668;-72
2022/04/21 01:28:46;;;;;;;0.10;0.10;;;8.30;99.90;12.80;88045.00;;;;5035641;28;20206;-71
2022/04/21 01:31:14;;;;;;;0.10;0.10;;;8.20;99.90;12.80;88045.00;;;;5035058;28;20205;-71
2022/04/21 01:33:42;;;;;;;0.10;0.10;;;8.20;99.90;12.80;88045.00;;;;5034858;28;20269;-71
2022/04/21 01:36:10;;;;;;;0.10;0.10;;;8.20;99.90;12.80;88045.00;;;;5033129;28;20195;-72
2022/04/21 01:41:30;;;;;;;0.10;0.10;;;8.30;99.90;12.80;88045.00;;;;4994165;28;20223;-71
2022/04/21 01:43:58;;;;;;;0.10;0.10;;;8.30;99.90;12.80;88045.00;;;;5032921;28;20708;-72
2022/04/21 01:46:25;;;;;;;0.10;0.10;;;8.40;99.90;12.80;88045.00;;;;5027764;28;20203;-71
2022/04/21 01:48:54;;;;;;;0.10;0.10;;;8.40;99.90;12.80;88045.00;;;;5024913;28;20291;-72
2022/04/21 01:51:22;;;;;;;0.10;0.10;;;8.60;99.90;12.80;88045.00;;;;5032630;28;20206;-72
2022/04/21 01:53:51;;;;;;;0.10;0.10;;;8.50;99.90;12.80;88045.00;;;;5032610;28;20777;-71
2022/04/21 01:56:19;;;;;;;0.10;0.10;;;8.50;99.90;12.80;88045.00;;;;5031943;28;20540;-70
2022/04/21 01:58:47;;;;;;;0.10;0.10;;;8.40;99.90;12.80;88045.00;;;;5032748;28;20648;-71
2022/04/21 02:01:15;;;;;;;0.10;0.10;;;8.40;99.90;12.80;88045.00;;;;5032073;28;20191;-71
2022/04/21 02:03:43;;;;;;;0.10;0.10;;;8.50;99.90;12.80;88045.00;;;;5032652;28;20277;-71
2022/04/21 02:06:13;;;;;;;0.10;0.10;;;8.50;99.90;12.80;88045.00;;;;5033116;28;20190;-72
2022/04/21 02:08:41;;;;;;;0.10;0.10;;;8.40;99.90;12.80;88045.00;;;;5034379;28;20202;-71
2022/04/21 02:11:10;;;;;;;0.10;0.10;;;8.40;99.90;12.80;88045.00;;;;5033574;28;20198;-72
2022/04/21 02:13:44;;;;;;;0.10;0.10;;;8.30;99.90;12.80;88045.00;;;;5017606;28;20833;-72
2022/04/21 02:16:13;;;;;;;0.10;0.10;;;8.30;99.90;12.80;88045.00;;;;5025625;28;20405;-71
2022/04/21 02:18:41;;;;;;;0.10;0.10;;;8.40;99.90;12.80;88045.00;;;;5015272;28;20254;-75
2022/04/21 02:21:09;;;;;;;0.10;0.10;;;8.40;99.90;12.80;88045.00;;;;5032623;28;20191;-72
2022/04/21 02:23:37;;;;;;;0.10;0.10;;;8.40;99.90;12.80;88045.00;;;;5031990;28;20582;-71
2022/04/21 02:26:05;;;;;;;0.10;0.10;;;8.50;99.90;12.80;88045.00;;;;5031927;28;20685;-71
2022/04/21 02:28:35;;;;;;;0.10;0.10;;;8.60;99.90;12.80;88045.00;;;;5031893;28;20187;-71
2022/04/21 02:31:03;;;;;;;0.10;0.10;;;8.70;99.90;12.80;88045.00;;;;5032066;28;20248;-71
2022/04/21 02:33:32;;;;;;;0.10;0.10;;;8.70;99.90;12.80;88045.00;;;;5031687;28;20223;-71
2022/04/21 02:36:00;;;;;;;0.10;0.10;;;8.80;99.90;12.80;88045.00;;;;5032005;28;20194;-71
2022/04/21 02:38:28;;;;;;;0.10;0.10;;;8.80;99.90;12.80;88045.00;;;;5031906;28;20198;-71
2022/04/21 02:40:56;;;;;;;0.10;0.10;;;8.80;99.90;12.80;88045.00;;;;5032068;28;20210;-72
2022/04/21 02:43:24;;;;;;;0.10;0.10;;;8.80;99.90;12.80;88045.00;;;;5031346;28;20227;-72
2022/04/21 02:45:53;;;;;;;0.00;0.00;;;8.70;99.90;12.80;88045.00;;;;5031301;28;20194;-72
2022/04/21 02:48:22;;;;;;;0.10;0.10;;;8.60;99.90;12.80;88045.00;;;;5031829;28;20657;-71
2022/04/21 02:50:50;;;;;;;0.10;0.10;;;8.70;99.90;12.80;88045.00;;;;5031884;28;20191;-72
2022/04/21 02:57:19;;;;;;;0.10;0.10;;;8.80;99.90;12.80;88045.00;;;;5031367;28;20195;-72
2022/04/21 02:59:06;;;;;;;0.10;0.10;;;8.90;99.90;12.80;88045.00;;;;4975336;28;20295;-72
2022/04/21 03:01:35;;;;;;;0.10;0.10;;;9.00;99.90;12.80;88045.00;;;;5008128;28;20212;-72
2022/04/21 03:04:04;;;;;;;0.10;0.10;;;9.00;99.90;12.80;88045.00;;;;5012974;28;20479;-73
2022/04/21 03:06:32;;;;;;;0.10;0.10;;;8.90;99.90;12.80;88045.00;;;;5013699;28;20200;-73
2022/04/21 03:09:00;;;;;;;0.10;0.10;;;8.90;99.90;12.80;88045.00;;;;5032061;28;20191;-72
2022/04/21 03:11:28;;;;;;;0.10;0.10;;;8.90;99.90;12.80;88045.00;;;;5030236;28;20563;-73
2022/04/21 03:13:56;;;;;;;0.10;0.10;;;8.90;99.90;12.80;88045.00;;;;5031730;28;20210;-73
2022/04/21 03:16:23;;;;;;;0.10;0.10;;;9.00;99.90;12.80;88045.00;;;;5032399;28;20198;-71
2022/04/21 03:18:53;;;;;;;0.10;0.10;;;9.00;99.90;12.80;88045.00;;;;5032096;28;20191;-71
2022/04/21 03:24:22;;;;;;;0.10;0.10;;;9.00;99.90;12.80;88045.00;;;;5031428;28;20237;-71
2022/04/21 03:26:52;;;;;;;0.10;0.10;;;9.10;99.90;12.80;88045.00;;;;5031281;28;20245;-71
2022/04/21 03:29:21;;;;;;;0.10;0.10;;;9.00;99.90;12.80;88045.00;;;;5030006;28;20191;-71
2022/04/21 03:31:50;;;;;;;0.10;0.10;;;9.00;99.90;12.80;88045.00;;;;5031172;28;20191;-71
2022/04/21 03:34:21;;;;;;;0.10;0.10;;;9.00;99.90;12.80;88045.00;;;;5031183;28;20215;-71
2022/04/21 03:36:50;;;;;;;0.10;0.10;;;9.00;99.90;12.80;88045.00;;;;5031264;28;20648;-72
2022/04/21 03:39:22;;;;;;;0.10;0.10;;;8.90;99.90;12.80;88045.00;;;;5030900;28;20191;-71
2022/04/21 03:41:53;;;;;;;0.00;0.00;;;8.90;99.90;12.80;88045.00;;;;5031432;28;20201;-72
2022/04/21 03:44:21;;;;;;;0.10;0.10;;;9.00;99.90;12.80;88045.00;;;;5030419;28;20226;-71
2022/04/21 03:46:49;;;;;;;0.10;0.10;;;9.00;99.90;12.80;88045.00;;;;5029753;28;20192;-71
2022/04/21 03:49:19;;;;;;;0.10;0.10;;;9.00;99.90;12.80;88045.00;;;;5018935;28;20195;-71
2022/04/21 03:51:47;;;;;;;0.08;0.08;;;9.00;99.90;12.80;88045.00;;;;5031396;28;20543;-72
2022/04/21 03:54:15;;;;;;;0.10;0.10;;;9.00;99.90;12.80;88045.00;;;;5029831;28;20219;-71
2022/04/21 03:56:43;;;;;;;0.10;0.10;;;9.00;99.90;12.80;88045.00;;;;5030803;28;20273;-73
2022/04/21 03:59:11;;;;;;;0.10;0.10;;;8.90;99.90;12.80;88045.00;;;;5031604;28;20195;-71
2022/04/21 04:01:40;;;;;;;0.10;0.10;;;8.90;99.90;12.80;88045.00;;;;5031751;28;20665;-71
2022/04/21 04:04:08;;;;;;;0.03;0.03;;;8.90;99.90;12.80;88045.00;;;;5031726;28;20219;-71
2022/04/21 04:12:11;;;;;;;0.10;0.10;;;8.80;99.90;12.80;88045.00;;;;5032636;28;20245;-71
2022/04/21 04:14:39;;;;;;;0.10;0.10;;;8.80;99.90;12.80;88045.00;;;;5036076;28;20219;-71
2022/04/21 04:17:08;;;;;;;0.10;0.10;;;8.80;99.90;12.80;88045.00;;;;5031823;28;20638;-71
2022/04/21 04:19:36;;;;;;;0.10;0.10;;;8.80;99.90;12.80;88045.00;;;;5037091;28;20657;-72
2022/04/21 04:22:06;;;;;;;0.10;0.10;;;8.80;99.90;12.80;88045.00;;;;5034734;28;20217;-72
2022/04/21 04:24:34;;;;;;;0.10;0.10;;;8.80;99.90;12.80;88045.00;;;;5034547;28;20238;-71
2022/04/21 04:27:02;;;;;;;0.00;0.00;;;8.80;99.90;12.80;88045.00;;;;5034163;28;20195;-71
2022/04/21 04:29:30;;;;;;;0.10;0.10;;;8.80;99.90;12.80;88045.00;;;;5034226;28;20673;-71
2022/04/21 04:32:00;;;;;;;0.10;0.10;;;8.70;99.90;12.80;88045.00;;;;5034327;28;20222;-71
2022/04/21 04:34:29;;;;;;;0.10;0.10;;;8.70;99.90;12.80;88045.00;;;;5032675;28;20277;-71
2022/04/21 04:36:57;;;;;;;0.10;0.10;;;8.70;99.90;12.80;88045.00;;;;5025099;28;20218;-72
2022/04/21 04:39:26;;;;;;;0.10;0.10;;;8.70;99.90;12.80;88045.00;;;;5016766;28;20203;-72
2022/04/21 04:44:39;;;;;;;0.10;0.10;;;8.70;99.90;12.80;88045.00;;;;5014455;28;20238;-72
2022/04/21 04:47:07;;;;;;;0.10;0.10;;;8.60;99.90;12.80;88045.00;;;;5014491;28;20697;-72
2022/04/21 04:49:34;;;;;;;0.10;0.10;;;8.50;99.90;12.80;88045.00;;;;5026174;28;20494;-71
2022/04/21 04:52:04;;;;;;;0.10;0.10;;;8.50;99.90;12.80;88045.00;;;;5034379;28;20183;-71
2022/04/21 04:54:34;;;;;;;0.10;0.10;;;8.50;99.90;12.80;88045.00;;;;5027756;28;20226;-71
2022/04/21 04:57:03;;;;;;;0.10;0.10;;;8.50;99.90;12.80;88045.00;;;;5024092;28;20199;-71
2022/04/21 04:59:31;;;;;;;0.10;0.10;;;8.50;99.90;12.80;88045.00;;;;5031680;28;20192;-71
2022/04/21 05:02:01;;;;;;;0.10;0.10;;;8.50;99.90;12.80;88045.00;;;;5026042;28;20196;-71
2022/04/21 05:04:30;;;;;;;0.10;0.10;;;8.60;99.90;12.80;88045.00;;;;5028287;28;20304;-71
2022/04/21 05:06:59;;;;;;;0.10;0.10;;;8.60;99.90;12.80;88045.00;;;;5033473;28;20206;-71
2022/04/21 05:09:27;;;;;;;0.10;0.10;;;8.60;99.90;12.80;88045.00;;;;5031592;28;20554;-71
2022/04/21 05:11:57;;;;;;;0.10;0.10;;;8.70;99.90;12.80;88045.00;;;;5014041;28;20196;-72
2022/04/21 05:14:26;;;;;;;0.10;0.10;;;8.70;99.90;12.80;88045.00;;;;5029574;28;20249;-72
2022/04/21 05:16:54;;;;;;;0.10;0.10;;;8.70;99.90;12.80;88045.00;;;;5033397;28;20199;-72
2022/04/21 05:19:24;;;;;;;0.10;0.10;;;8.70;99.90;12.80;88045.00;;;;5033440;28;20191;-72
2022/04/21 05:21:53;;;;;;;0.10;0.10;;;8.80;99.90;12.80;88045.00;;;;5033684;28;20194;-71
2022/04/21 05:24:22;;;;;;;0.05;0.05;;;8.80;99.90;12.80;88045.00;;;;5033020;28;20222;-71
2022/04/21 05:26:50;;;;;;;0.10;0.10;;;8.80;99.90;12.80;88045.00;;;;5028398;28;20203;-71
2022/04/21 05:32:07;;;;;;;0.10;0.10;;;8.70;99.90;12.80;88045.00;;;;5013915;28;20200;-71
2022/04/21 05:34:36;;;;;;;0.10;0.10;;;8.70;99.90;12.80;88045.00;;;;5019096;28;20233;-71
2022/04/21 05:37:06;;;;;;;0.10;0.10;;;8.60;99.90;12.80;88045.00;;;;5033192;28;20661;-71
2022/04/21 05:39:34;;;;;;;0.10;0.10;;;8.70;99.90;12.80;88045.00;;;;5033252;28;20203;-71
2022/04/21 05:42:07;;;;;;;0.10;0.10;;;8.70;99.90;12.80;88045.00;;;;5033473;28;20256;-71
2022/04/21 05:44:37;;;;;;;0.10;0.10;;;8.70;99.90;12.80;88045.00;;;;5033064;28;20227;-71
2022/04/21 05:47:06;;;;;;;0.10;0.10;;;8.70;99.90;12.80;88045.00;;;;5033322;28;20195;-71
2022/04/21 05:49:35;;;;;;;0.10;0.10;;;8.80;99.90;12.80;88045.00;;;;5033165;28;20253;-71
2022/04/21 05:52:08;;;;;;;0.10;0.10;;;8.80;99.90;12.80;88045.00;;;;5033248;28;20583;-71
2022/04/21 05:54:36;;;;;;;0.10;0.10;;;8.80;99.90;12.80;88045.00;;;;5033077;28;20223;-71
2022/04/21 05:57:05;;;;;;;0.10;0.10;;;8.80;99.90;12.80;88045.00;;;;5032897;28;20652;-71
2022/04/21 05:59:34;;;;;;;0.10;0.10;;;8.90;99.90;12.80;88045.00;;;;5026285;28;20203;-71
2022/04/21 06:02:06;;;;;;;0.10;0.10;;;8.80;99.90;12.80;88045.00;;;;5019391;28;20207;-71
2022/04/21 06:04:34;;;;;;;0.10;0.10;;;8.80;99.90;12.80;88045.00;;;;5013212;28;20233;-71
2022/04/21 06:07:02;;;;;;;0.10;0.10;;;8.80;99.90;12.80;88045.00;;;;5014885;28;20235;-71
2022/04/21 06:09:30;;;;;;;0.10;0.10;;;8.80;99.90;12.80;88045.00;;;;5033139;28;20199;-71
2022/04/21 06:11:59;;;;;;;0.10;0.10;;;8.80;99.90;12.80;88045.00;;;;5032894;28;20191;-71
2022/04/21 06:14:27;;;;;;;0.10;0.10;;;8.80;99.90;12.80;88045.00;;;;5033197;28;20215;-71
2022/04/21 06:16:55;;;;;;;0.10;0.10;;;8.80;99.90;12.80;88045.00;;;;5032601;28;20195;-71
2022/04/21 06:19:24;;;;;;;0.10;0.10;;;8.80;99.90;12.80;88045.00;;;;5032709;28;20197;-71
2022/04/21 06:21:52;;;;;;;0.00;0.00;;;8.80;99.90;12.80;88045.00;;;;5032528;28;20199;-72
2022/04/21 06:24:20;;;;;;;0.10;0.10;;;8.80;99.90;12.80;88045.00;;;;5026105;28;20235;-72
2022/04/21 06:26:48;;;;;;;0.10;0.10;;;8.90;99.90;12.80;88045.00;;;;5012828;28;20207;-72
2022/04/21 06:29:16;;;;;;;0.10;0.10;;;8.90;99.90;12.80;88045.00;;;;5012441;28;20203;-73
2022/04/21 06:31:45;;;;;;;0.10;0.10;;;9.00;99.90;12.80;88045.00;;;;5012503;28;20195;-71
2022/04/21 06:34:13;;;;;;;0.10;0.10;;;9.00;99.90;12.80;88045.00;;;;5012390;28;20311;-71
2022/04/21 06:36:42;;;;;;;0.10;0.10;;;9.00;99.90;12.80;88045.00;;;;5012247;28;20552;-71
2022/04/21 06:39:10;;;;;;;0.10;0.10;;;9.00;99.90;12.80;88045.00;;;;5012906;28;20203;-72
2022/04/21 06:41:38;;;;;;;0.10;0.10;;;9.00;99.90;12.80;88045.00;;;;5014537;28;20191;-72
2022/04/21 06:49:38;;;;;;;0.10;0.10;;;9.00;99.90;12.80;88045.00;;;;5012879;28;20191;-71
2022/04/21 06:52:08;;;;;;;0.10;0.10;;;9.10;99.90;12.80;88045.00;;;;5012679;28;20195;-73
2022/04/21 06:54:36;;;;;;;0.10;0.10;;;9.10;99.90;12.80;88045.00;;;;5013011;28;20250;-70
2022/04/21 06:57:04;;;;;;;0.10;0.10;;;9.20;99.90;12.80;88045.00;;;;5012112;28;20242;-70
2022/04/21 06:59:32;;;;;;;0.10;0.10;;;9.30;99.90;12.80;88045.00;;;;5012301;28;20684;-70
2022/04/21 07:02:01;;;;;;;0.03;0.03;;;9.30;99.90;12.80;88045.00;;;;5012245;28;20206;-73
2022/04/21 07:04:29;;;;;;;0.10;0.10;;;9.30;99.90;12.80;88045.00;;;;5012145;28;20627;-71
2022/04/21 07:06:57;;;;;;;0.10;0.10;;;9.30;99.90;12.80;88045.00;;;;5012443;28;20242;-74
2022/04/21 07:09:26;;;;;;;0.10;0.10;;;9.20;99.90;12.80;88045.00;;;;5012415;28;20203;-70
2022/04/21 07:11:54;;;;;;;0.15;0.15;;;9.30;99.90;12.80;88045.00;;;;5013225;28;20795;-70
2022/04/21 07:14:22;;;;;;;0.10;0.10;;;9.30;99.90;12.80;88045.00;;;;5012520;28;20216;-73
2022/04/21 07:16:50;;;;;;;0.10;0.10;;;9.30;99.90;12.80;88045.00;;;;5011834;28;20211;-73
2022/04/21 07:19:18;;;;;;;0.10;0.10;;;9.30;99.90;12.80;88045.00;;;;5012241;28;20202;-71
2022/04/21 07:21:46;;;;;;;0.10;0.10;;;9.30;99.90;12.80;88045.00;;;;5012118;28;20242;-71
2022/04/21 07:24:13;;;;;;;0.10;0.10;;;9.40;99.90;12.80;88045.00;;;;5011746;28;20219;-71
2022/04/21 07:26:43;;;;;;;0.10;0.10;;;9.40;99.90;12.80;88045.00;;;;5011987;28;20223;-72
2022/04/21 07:29:11;;;;;;;0.10;0.10;;;9.50;99.90;12.80;88045.00;;;;5012666;28;20590;-70
2022/04/21 07:31:40;;;;;;;0.08;0.08;;;9.50;99.90;12.80;88045.00;;;;5011359;28;20200;-71
2022/04/21 07:34:08;;;;;;;0.10;0.10;;;9.50;99.90;12.80;88045.00;;;;5027457;28;20284;-72
2022/04/21 07:36:36;;;;;;;0.10;0.10;;;9.30;99.90;12.80;88045.00;;;;5031479;28;20203;-71
2022/04/21 07:39:05;;;;;;;0.10;0.10;;;9.40;99.90;12.80;88045.00;;;;5031749;28;20323;-71
2022/04/21 07:41:33;;;;;;;0.10;0.10;;;9.50;99.90;12.80;88045.00;;;;5031578;28;20187;-71
2022/04/21 07:44:03;;;;;;;0.10;0.10;;;9.50;99.90;12.80;88045.00;;;;5031465;28;20214;-71
2022/04/21 07:46:32;;;;;;;0.10;0.10;;;9.30;99.90;12.80;88045.00;;;;5031183;28;20223;-71
2022/04/21 07:51:46;;;;;;;0.10;0.10;;;9.20;99.90;12.80;88045.00;;;;5031841;28;20191;-71
2022/04/21 07:54:13;;;;;;;0.10;0.10;;;9.40;99.90;12.80;88045.00;;;;5034423;28;20692;-71
2022/04/21 07:56:41;;;;;;;0.10;0.10;;;9.40;99.90;12.80;88045.00;;;;5035717;28;20195;-73
2022/04/21 07:59:10;;;;;;;0.10;0.10;;;9.50;99.90;12.80;88045.00;;;;5035819;28;20187;-71
2022/04/21 08:01:38;;;;;;;0.10;0.10;;;9.60;99.90;12.80;88045.00;;;;5035793;28;20691;-71
2022/04/21 08:04:06;;;;;;;0.10;0.10;;;9.60;99.90;12.80;88045.00;;;;5034546;28;20222;-71
2022/04/21 08:06:34;;;;;;;0.10;0.10;;;9.70;99.90;12.80;88045.00;;;;5035169;28;20227;-71
2022/04/21 08:09:03;;;;;;;0.10;0.10;;;9.70;99.90;12.80;88045.00;;;;5035560;28;20203;-71
2022/04/21 08:11:32;;;;;;;0.10;0.10;;;9.80;99.90;12.80;88045.00;;;;5035490;28;20581;-71
2022/04/21 08:14:00;;;;;;;0.10;0.10;;;9.80;99.90;12.80;88045.00;;;;5035613;28;20257;-71
2022/04/21 08:16:29;;;;;;;0.10;0.10;;;9.80;99.90;12.80;88045.00;;;;5034884;28;20203;-71
2022/04/21 08:18:59;;;;;;;0.10;0.10;;;9.90;99.90;12.80;88045.00;;;;5035491;28;20668;-72
2022/04/21 08:21:27;;;;;;;0.10;0.10;;;9.90;99.90;12.80;88045.00;;;;5034970;28;20664;-71
2022/04/21 08:33:16;;;;;;;0.10;0.10;;;9.90;99.90;12.80;88045.00;;;;5035290;28;20202;-71
2022/04/21 08:35:45;;;;;;;0.10;0.10;;;9.90;99.90;12.80;88045.00;;;;5036057;28;20249;-71
2022/04/21 08:38:13;;;;;;;0.10;0.10;;;9.90;99.90;12.80;88045.00;;;;5039561;28;20202;-71
2022/04/21 08:40:50;;;;;;;0.10;0.10;;;9.90;99.90;12.80;88045.00;;;;5036477;28;20245;-71
2022/04/21 08:43:18;;;;;;;0.10;0.10;;;9.90;99.90;12.80;88045.00;;;;5025004;28;20199;-71
2022/04/21 08:45:48;;;;;;;0.10;0.10;;;9.90;99.90;12.80;88045.00;;;;5034309;28;20624;-71
2022/04/21 08:48:19;;;;;;;0.10;0.10;;;10.00;99.90;12.80;88045.00;;;;5034615;28;20214;-71
2022/04/21 08:50:47;;;;;;;0.10;0.10;;;10.00;99.90;12.80;88045.00;;;;5046297;28;20207;-71
2022/04/21 08:53:19;;;;;;;0.10;0.10;;;9.90;99.90;12.80;88045.00;;;;5034372;28;20203;-71
2022/04/21 08:55:49;;;;;;;0.10;0.10;;;9.90;99.90;12.80;88045.00;;;;5034710;28;20668;-71
2022/04/21 08:58:18;;;;;;;0.10;0.10;;;9.90;99.90;12.80;88045.00;;;;5033596;28;20199;-73
2022/04/21 09:00:47;;;;;;;0.10;0.10;;;9.90;99.90;12.80;88045.00;;;;5034435;28;20202;-71
2022/04/21 09:03:16;;;;;;;0.10;0.10;;;9.90;99.90;12.80;88045.00;;;;5034576;28;20210;-72
2022/04/21 09:05:45;;;;;;;0.10;0.10;;;9.80;99.90;12.80;88045.00;;;;5033854;28;20234;-71
2022/04/21 09:08:22;;;;;;;0.10;0.10;;;9.80;99.90;12.80;88045.00;;;;5036345;28;20203;-71
2022/04/21 09:11:07;;;;;;;0.10;0.10;;;9.80;99.90;12.80;88045.00;;;;5036637;28;20661;-70
2022/04/21 09:13:37;;;;;;;0.10;0.10;;;9.90;99.90;12.80;88045.00;;;;5034755;28;20229;-71
2022/04/21 09:16:08;;;;;;;0.10;0.10;;;9.80;99.90;12.80;88045.00;;;;5034064;28;20199;-71
2022/04/21 09:18:40;;;;;;;0.10;0.10;;;9.80;99.90;12.80;88045.00;;;;5034598;28;20201;-71
2022/04/21 09:21:14;;;;;;;0.10;0.10;;;9.70;99.90;12.80;88045.00;;;;5034952;28;20202;-71
2022/04/21 09:23:43;;;;;;;0.10;0.10;;;9.70;99.90;12.80;88045.00;;;;5034300;28;20219;-70
2022/04/21 09:26:14;;;;;;;0.10;0.10;;;9.60;99.90;12.80;88045.00;;;;5033545;28;20226;-71
2022/04/21 09:28:55;;;;;;;0.10;0.10;;;9.60;99.90;12.80;88045.00;;;;5034570;28;20217;-71
2022/04/21 09:31:26;;;;;;;0.10;0.10;;;9.50;99.90;12.80;88045.00;;;;5034389;28;20198;-71
2022/04/21 09:33:56;;;;;;;0.10;0.10;;;9.60;99.90;12.80;88045.00;;;;5034245;28;20218;-72
2022/04/21 09:36:24;;;;;;;0.10;0.10;;;9.50;99.90;12.80;88045.00;;;;5033553;28;20233;-71
2022/04/21 09:39:01;;;;;;;0.10;0.10;;;9.50;99.90;12.80;88045.00;;;;5034156;28;20245;-72
2022/04/21 09:41:31;;;;;;;0.10;0.10;;;9.50;99.90;12.80;88045.00;;;;5033865;28;20229;-71
2022/04/21 09:46:07;;;;;;;0.10;0.10;;;9.50;99.90;12.80;88045.00;;;;5033770;28;20218;-72
2022/04/21 09:47:06;;;;;;;0.10;0.10;;;9.60;99.90;12.80;88045.00;;;;5033060;28;20222;-72
2022/04/21 09:49:36;;;;;;;0.10;0.10;;;9.70;99.90;12.80;88045.00;;;;5033643;28;21256;-71
2022/04/21 09:52:06;;;;;;;0.08;0.08;;;9.80;99.90;12.80;88045.00;;;;5033427;28;20710;-72
2022/04/21 09:54:34;;;;;;;0.10;0.10;;;9.80;99.90;12.80;88045.00;;;;5022370;28;20223;-71
2022/04/21 09:57:05;;;;;;;0.20;0.20;;;9.80;99.90;12.80;88045.00;;;;5028468;28;20279;-72
2022/04/21 09:59:35;;;;;;;0.10;0.10;;;9.90;99.90;12.80;88045.00;;;;5035025;28;20203;-72
2022/04/21 10:02:04;;;;;;;0.10;0.10;;;9.90;99.90;12.80;88045.00;;;;5033255;28;20191;-72
2022/04/21 10:04:33;;;;;;;0.10;0.10;;;9.90;99.90;12.80;88045.00;;;;5013575;28;20250;-72
2022/04/21 10:07:04;;;;;;;0.00;0.00;;;9.90;99.90;12.80;88045.00;;;;5013102;28;20711;-71
2022/04/21 10:09:33;;;;;;;0.10;0.10;;;10.00;99.90;12.80;88045.00;;;;5013260;28;20203;-72
2022/04/21 10:12:01;;;;;;;0.10;0.10;;;10.00;99.90;12.80;88045.00;;;;5013225;28;20210;-73
2022/04/21 10:14:29;;;;;;;0.10;0.10;;;10.00;99.90;12.80;88045.00;;;;5012707;28;20212;-73
2022/04/21 10:16:57;;;;;;;0.10;0.10;;;10.10;99.90;12.80;88045.00;;;;5012181;28;20196;-72
2022/04/21 10:19:25;;;;;;;0.10;0.10;;;10.10;99.90;12.80;88045.00;;;;5013121;28;20278;-72
2022/04/21 10:21:58;;;;;;;0.10;0.10;;;10.20;99.90;12.80;88045.00;;;;5013017;28;20192;-72
2022/04/21 10:24:32;;;;;;;0.10;0.10;;;10.20;99.90;12.80;88045.00;;;;5013341;28;20219;-72
2022/04/21 10:27:00;;;;;;;0.10;0.10;;;10.20;99.90;12.80;88045.00;;;;5013392;28;20302;-72
2022/04/21 10:29:29;;;;;;;0.10;0.10;;;10.20;99.90;12.80;88045.00;;;;5013327;28;20201;-72
2022/04/21 10:31:59;;;;;;;0.10;0.10;;;10.10;99.90;12.80;88045.00;;;;5013103;28;20582;-72
2022/04/21 10:34:32;;;;;;;0.10;0.10;;;10.20;99.90;12.80;88045.00;;;;5012995;28;20258;-72
2022/04/21 10:37:13;;;;;;;0.10;0.10;;;10.20;99.90;12.80;88045.00;;;;5017578;28;20207;-72
2022/04/21 10:40:04;;;;;;;0.10;0.10;;;10.20;99.90;12.80;88045.00;;;;5032085;28;20207;-73
2022/04/21 10:42:57;;;;;;;0.10;0.10;;;10.20;99.90;12.80;88045.00;;;;5013357;28;20648;-71
2022/04/21 10:45:28;;;;;;;0.10;0.10;;;10.30;99.90;12.80;88045.00;;;;5026051;28;20308;-72
2022/04/21 10:48:08;;;;;;;0.10;0.10;;;10.30;99.90;12.80;88045.00;;;;5034918;28;20226;-72
2022/04/21 10:50:41;;;;;;;0.10;0.10;;;10.30;99.90;12.80;88045.00;;;;5035649;28;20286;-71
2022/04/21 10:58:53;;;;;;;0.10;0.10;;;10.20;99.90;12.80;88045.00;;;;5035958;28;20202;-72
2022/04/21 11:01:31;;;;;;;0.00;0.00;;;10.20;99.90;12.80;88045.00;;;;5036566;28;20266;-72
2022/04/21 11:04:27;;;;;;;0.10;0.10;;;10.20;99.90;12.80;88045.00;;;;5037671;28;20241;-72
2022/04/21 11:07:10;;;;;;;0.10;0.10;;;10.20;99.90;12.80;88045.00;;;;5004474;28;20230;-71
2022/04/21 11:09:44;;;;;;;0.10;0.10;;;10.20;99.90;12.80;88045.00;;;;5036224;28;20190;-71
2022/04/21 11:12:49;;;;;;;0.10;0.10;;;10.20;99.90;12.80;88045.00;;;;5035684;28;20265;-71
2022/04/21 11:15:36;;;;;;;0.10;0.10;;;10.30;99.90;12.80;88045.00;;;;5034805;28;20667;-71
2022/04/21 11:18:10;;;;;;;0.10;0.10;;;10.30;99.90;12.80;88045.00;;;;5032254;28;20262;-71
2022/04/21 11:20:40;;;;;;;0.10;0.10;;;10.30;99.90;12.80;88045.00;;;;5033835;28;20194;-71
2022/04/21 11:23:10;;;;;;;0.10;0.10;;;10.30;99.90;12.80;88045.00;;;;5032122;28;20611;-72
2022/04/21 11:25:38;;;;;;;0.10;0.10;;;10.30;99.90;12.80;88045.00;;;;5032002;28;20195;-73
2022/04/21 11:28:10;;;;;;;0.10;0.10;;;10.30;99.90;12.80;88045.00;;;;5034884;28;20704;-71
2022/04/21 11:30:38;;;;;;;0.10;0.10;;;10.30;99.90;12.80;88045.00;;;;5035376;28;20206;-71
2022/04/21 11:33:11;;;;;;;0.10;0.10;;;10.30;99.90;12.80;88045.00;;;;5036267;28;20671;-71
2022/04/21 11:35:39;;;;;;;0.10;0.10;;;10.40;99.90;12.80;88045.00;;;;5036040;28;20199;-72
2022/04/21 11:38:07;;;;;;;0.10;0.10;;;10.40;99.90;12.80;88045.00;;;;5035991;28;20194;-72
2022/04/21 11:40:37;;;;;;;0.10;0.10;;;10.40;99.90;12.80;88045.00;;;;5035791;28;20870;-72
2022/04/21 11:43:16;;;;;;;0.10;0.10;;;10.40;99.90;12.80;88045.00;;;;5035842;28;20186;-72
2022/04/21 11:45:56;;;;;;;0.10;0.10;;;10.40;99.90;12.80;88045.00;;;;5035898;28;20216;-72
2022/04/21 11:48:30;;;;;;;0.10;0.10;;;10.40;99.90;12.80;88045.00;;;;5036068;28;20309;-73
2022/04/21 11:50:59;;;;;;;0.10;0.10;;;10.40;99.90;12.80;88045.00;;;;5036140;28;20523;-72
2022/04/21 11:53:29;;;;;;;0.10;0.10;;;10.30;99.90;12.80;88045.00;;;;5035898;28;20211;-73
2022/04/21 11:55:57;;;;;;;0.10;0.10;;;10.30;99.90;12.80;88045.00;;;;5035955;28;20190;-72
2022/04/21 11:58:32;;;;;;;0.10;0.10;;;10.30;99.90;12.80;88045.00;;;;5035942;28;20226;-72